Terminal Aerodrome Forecast
Issued by NWS

Current Version | Previous Version | Graphics & Text | Print | Product List | Glossary On
Versions: 1 2 3 4 5 6 7 8 9 10 11 12 13 14 15 16 17 18 19 20 21 22 23 24
000
FTUS41 KRLX 201748 AAC
TAFCKB
TAF AMD
KCKB 201748Z 2018/2118 22013G22KT P6SM FEW250
     FM202100 22009G16KT P6SM FEW250
     FM210000 20004KT P6SM SKC
     FM210600 18004KT P6SM FEW250
     FM211300 19004KT P6SM BKN040
     FM211700 22008KT P6SM BKN035=

USA.gov is the U.S. government's official web portal to all federal, state and local government web resources and services.